Time;durP1;ratioP1;P1;durP2;ratioP2;P2;SDS_P1;SDS_P2;PMS_P1;PMS_P2;Temp;Humidity;BMP_temperature;BMP_pressure;BME280_temperature;BME280_humidity;BME280_pressure;Samples;Min_cycle;Max_cycle;Signal;HPM_P1;HPM_P2
2021/01/27 00:00:47;;;;;;;79.12;41.73;;;;;;;-2.16;65.47;93807.44;1779143;79;21069;-55
2021/01/27 00:03:16;;;;;;;77.58;44.03;;;;;;;-2.07;65.36;93808.56;1807982;79;21116;-58
2021/01/27 00:05:47;;;;;;;57.53;32.65;;;;;;;-2.08;65.38;93817.80;1807877;79;21553;-55
2021/01/27 00:08:15;;;;;;;47.62;26.42;;;;;;;-2.16;65.30;93810.14;1807916;79;21057;-55
2021/01/27 00:10:45;;;;;;;49.13;28.00;;;;;;;-2.25;65.41;93816.50;1807903;79;21192;-54
2021/01/27 00:15:33;;;;;;;57.73;31.75;;;;;;;-2.25;65.48;93813.23;1836037;77;25722;-58
2021/01/27 00:18:03;;;;;;;53.78;28.65;;;;;;;-2.27;65.18;93823.63;1779311;79;21131;-57
2021/01/27 00:20:31;;;;;;;55.98;29.15;;;;;;;-2.27;65.28;93824.20;1776825;79;22367;-57
2021/01/27 00:22:59;;;;;;;53.83;31.77;;;;;;;-2.27;65.10;93824.20;1783013;79;21235;-58
2021/01/27 00:25:30;;;;;;;134.15;92.90;;;;;;;-2.39;65.45;93821.34;1781161;78;21223;-57
2021/01/27 00:27:58;;;;;;;54.83;29.92;;;;;;;-2.39;65.75;93814.61;1778166;79;21119;-56
2021/01/27 00:30:30;;;;;;;52.60;28.25;;;;;;;-2.33;65.81;93815.74;1777660;78;21178;-57
2021/01/27 00:32:58;;;;;;;61.00;32.30;;;;;;;-2.36;65.76;93821.91;1783551;78;21156;-55
2021/01/27 00:35:32;;;;;;;58.65;32.20;;;;;;;-2.42;66.03;93819.42;1791244;79;21615;-57
2021/01/27 00:38:01;;;;;;;53.63;29.67;;;;;;;-2.43;66.15;93809.81;1796775;79;21210;-57
2021/01/27 00:40:30;;;;;;;60.55;32.00;;;;;;;-2.40;66.13;93805.56;1782804;78;21139;-58
2021/01/27 00:42:58;;;;;;;64.00;31.95;;;;;;;-2.36;66.20;93798.27;1790153;79;21076;-58
2021/01/27 00:45:26;;;;;;;63.83;33.30;;;;;;;-2.30;66.32;93797.45;1785580;79;21207;-57
2021/01/27 00:47:55;;;;;;;76.75;37.03;;;;;;;-2.25;65.99;93796.30;1784202;79;21847;-57
2021/01/27 00:50:23;;;;;;;84.87;41.70;;;;;;;-2.34;65.89;93798.05;1789964;78;21200;-58
2021/01/27 00:52:52;;;;;;;94.25;45.38;;;;;;;-2.37;65.89;93803.44;1736744;81;21164;-56
2021/01/27 00:55:25;;;;;;;100.85;47.38;;;;;;;-2.37;66.20;93804.78;1778706;79;21191;-57
2021/01/27 00:57:53;;;;;;;99.10;45.40;;;;;;;-2.29;66.09;93796.30;1790641;78;21143;-57
2021/01/27 01:00:28;;;;;;;105.58;50.35;;;;;;;-2.25;66.19;93789.00;1726069;81;21080;-56
2021/01/27 01:02:57;;;;;;;127.87;60.10;;;;;;;-2.13;66.02;93789.91;1775393;78;21602;-58
2021/01/27 01:05:31;;;;;;;105.15;51.00;;;;;;;-2.05;65.88;93786.61;1780843;78;21190;-57
2021/01/27 01:07:59;;;;;;;110.72;56.60;;;;;;;-1.97;65.74;93782.74;1791173;78;21497;-57
2021/01/27 01:10:34;;;;;;;96.92;49.53;;;;;;;-1.94;65.72;93782.70;1787404;78;21114;-59
2021/01/27 01:13:04;;;;;;;107.92;51.23;;;;;;;-1.86;65.40;93770.76;1777652;79;21293;-58
2021/01/27 01:15:32;;;;;;;116.85;55.17;;;;;;;-1.81;65.33;93768.23;1753754;80;21201;-58
2021/01/27 01:18:00;;;;;;;117.33;54.18;;;;;;;-1.75;65.19;93758.76;1724175;81;21151;-58
2021/01/27 01:20:29;;;;;;;98.42;48.58;;;;;;;-1.68;64.88;93752.56;1695056;83;21113;-57
2021/01/27 01:23:00;;;;;;;103.07;50.28;;;;;;;-1.65;64.76;93745.03;1761665;80;21623;-57
2021/01/27 01:25:31;;;;;;;90.38;40.05;;;;;;;-1.61;64.54;93755.20;1764003;80;21246;-57
2021/01/27 01:28:00;;;;;;;81.70;38.90;;;;;;;-1.62;64.40;93749.63;1750467;80;21217;-57
2021/01/27 01:30:32;;;;;;;75.35;35.73;;;;;;;-1.70;64.43;93738.72;1756810;80;21594;-56
2021/01/27 01:33:08;;;;;;;73.65;37.80;;;;;;;-1.72;64.30;93738.34;1753160;80;21190;-58
2021/01/27 01:35:37;;;;;;;69.95;35.20;;;;;;;-1.80;64.08;93730.70;1757326;80;22772;-58
2021/01/27 01:38:06;;;;;;;69.60;35.50;;;;;;;-1.93;64.34;93730.35;1751352;80;21626;-58
2021/01/27 01:40:44;;;;;;;83.42;39.50;;;;;;;-1.95;64.64;93725.94;1715577;81;21119;-57
2021/01/27 01:43:25;;;;;;;88.20;41.88;;;;;;;-1.91;64.58;93724.58;1754125;80;21170;-57
2021/01/27 01:46:05;;;;;;;152.45;68.35;;;;;;;-1.91;64.37;93725.93;1751870;80;21043;-58
2021/01/27 01:48:58;;;;;;;103.15;48.48;;;;;;;-1.91;64.61;93728.06;1754797;80;21384;-59
2021/01/27 01:51:50;;;;;;;;;;;;;;;-1.90;64.47;93722.86;1755495;80;21115;-57
2021/01/27 01:54:35;;;;;;;85.03;42.80;;;;;;;-1.90;64.37;93715.34;1747215;80;20222;-56
2021/01/27 01:57:11;;;;;;;82.10;43.55;;;;;;;-1.96;64.37;93710.19;1750160;80;21225;-61
2021/01/27 01:59:40;;;;;;;53.83;29.87;;;;;;;-1.94;64.41;93715.34;1754544;80;21150;-60
2021/01/27 02:02:09;;;;;;;78.07;36.77;;;;;;;-1.99;64.02;93714.42;1733216;79;22139;-61
2021/01/27 02:04:42;;;;;;;71.95;35.55;;;;;;;-2.08;64.18;93717.36;1748588;80;21229;-62
2021/01/27 02:07:10;;;;;;;48.68;25.77;;;;;;;-2.16;64.43;93719.31;1755913;80;21243;-59
2021/01/27 02:09:39;;;;;;;79.37;35.65;;;;;;;-2.22;64.31;93718.20;1727421;81;21068;-59
2021/01/27 02:12:23;;;;;;;101.22;40.75;;;;;;;-2.25;64.49;93713.59;1732393;82;21554;-59
2021/01/27 02:15:30;;;;;;;53.28;26.30;;;;;;;-2.22;64.55;93716.06;1727209;82;21365;-59
2021/01/27 02:18:06;;;;;;;52.38;29.18;;;;;;;-2.20;64.17;93715.88;1757052;80;21142;-60
2021/01/27 02:20:57;;;;;;;46.13;31.25;;;;;;;-2.28;63.99;93717.08;1753681;80;21053;-60
2021/01/27 02:23:54;;;;;;;70.32;38.35;;;;;;;-2.36;64.22;93716.15;1749465;80;21479;-60
2021/01/27 02:26:51;;;;;;;116.45;60.92;;;;;;;-2.32;64.01;93720.94;1749630;80;21643;-60
2021/01/27 02:29:42;;;;;;;149.68;68.83;;;;;;;-2.29;63.96;93711.47;1727436;81;21631;-58
2021/01/27 02:32:59;;;;;;;69.15;35.00;;;;;;;-2.12;63.53;93713.32;1718389;80;21245;-61
2021/01/27 02:35:51;;;;;;;90.95;38.00;;;;;;;-2.01;63.22;93707.31;1733582;81;21071;-60
2021/01/27 02:38:27;;;;;;;149.35;55.83;;;;;;;-1.96;62.69;93720.36;1721614;81;21111;-60
2021/01/27 02:41:19;;;;;;;158.68;62.43;;;;;;;-2.03;62.51;93723.11;1746612;80;21530;-61
2021/01/27 02:43:52;;;;;;;102.85;46.63;;;;;;;-2.09;62.61;93712.56;1726365;80;21370;-58
2021/01/27 02:46:44;;;;;;;222.98;85.87;;;;;;;-2.04;62.55;93697.33;1740210;80;21200;-62
2021/01/27 02:49:23;;;;;;;133.50;57.15;;;;;;;-1.98;62.33;93702.48;1745309;80;21118;-56
2021/01/27 02:52:03;;;;;;;193.32;80.75;;;;;;;-1.94;62.01;93703.22;1745517;80;21158;-55
2021/01/27 02:54:50;;;;;;;97.08;46.30;;;;;;;-1.96;61.81;93712.28;1751649;80;21095;-57
2021/01/27 02:57:39;;;;;;;111.05;50.95;;;;;;;-2.09;62.00;93720.64;1752135;80;21242;-58
2021/01/27 03:00:22;;;;;;;188.80;83.97;;;;;;;-2.16;61.95;93727.39;1757112;80;21138;-59
2021/01/27 03:02:58;;;;;;;60.60;32.93;;;;;;;-2.27;62.14;93725.34;1755804;80;28188;-58
2021/01/27 03:05:30;;;;;;;45.52;24.02;;;;;;;-2.36;62.35;93730.36;1735932;80;21512;-58
2021/01/27 03:08:01;;;;;;;46.65;25.70;;;;;;;-2.43;62.74;93728.27;1757190;80;21137;-58
2021/01/27 03:10:57;;;;;;;33.50;20.30;;;;;;;-2.47;63.00;93726.17;1760291;80;21677;-58
2021/01/27 03:13:26;;;;;;;30.68;18.30;;;;;;;-2.44;62.97;93721.35;1750496;80;21087;-58
2021/01/27 03:15:58;;;;;;;31.62;22.30;;;;;;;-2.48;62.85;93733.47;1753826;80;21478;-60
2021/01/27 03:18:29;;;;;;;38.13;21.00;;;;;;;-2.58;62.96;93736.19;1748204;80;21215;-59
2021/01/27 03:21:02;;;;;;;40.50;22.90;;;;;;;-2.64;63.26;93739.88;1727693;81;21664;-59
2021/01/27 03:23:39;;;;;;;57.90;28.10;;;;;;;-2.58;63.51;93746.39;1732874;81;21275;-58
2021/01/27 03:26:27;;;;;;;75.42;31.52;;;;;;;-2.50;63.42;93741.77;1756059;80;21934;-57
2021/01/27 03:29:27;;;;;;;51.08;23.80;;;;;;;-2.37;63.22;93752.28;1714206;81;21193;-58
2021/01/27 03:31:56;;;;;;;34.83;20.85;;;;;;;-2.28;63.06;93737.84;1723916;81;21191;-59
2021/01/27 03:34:41;;;;;;;35.33;20.72;;;;;;;-2.20;62.82;93737.98;1720137;82;21089;-59
2021/01/27 03:37:20;;;;;;;39.48;21.85;;;;;;;-2.17;62.59;93733.94;1752321;80;21117;-59
2021/01/27 03:39:49;;;;;;;39.33;21.15;;;;;;;-2.10;62.40;93733.14;1753418;80;21202;-59
2021/01/27 03:42:25;;;;;;;31.52;17.50;;;;;;;-2.04;62.22;93733.70;1751447;80;21143;-58
2021/01/27 03:45:01;;;;;;;35.25;17.50;;;;;;;-2.00;62.01;93738.48;1755083;80;21814;-58
2021/01/27 03:47:43;;;;;;;28.75;17.12;;;;;;;-1.99;62.08;93737.32;1749058;80;21238;-59
2021/01/27 03:50:18;;;;;;;41.50;20.60;;;;;;;-1.99;61.80;93733.28;1751124;80;21363;-58
2021/01/27 03:53:03;;;;;;;41.28;25.80;;;;;;;-2.03;61.84;93740.62;1752352;80;21918;-59
2021/01/27 03:55:43;;;;;;;21.07;15.03;;;;;;;-2.04;61.72;93736.39;1719393;82;21195;-58
2021/01/27 03:58:36;;;;;;;19.40;13.40;;;;;;;-2.00;61.71;93747.91;1688473;83;21103;-58
2021/01/27 04:01:20;;;;;;;20.05;14.58;;;;;;;-1.92;61.77;93745.36;1685115;83;21499;-59
2021/01/27 04:03:53;;;;;;;23.50;15.10;;;;;;;-1.91;61.65;93741.53;1715573;82;21216;-58
2021/01/27 04:06:21;;;;;;;25.92;17.37;;;;;;;-1.93;61.48;93730.35;1751759;80;21136;-58
2021/01/27 04:08:50;;;;;;;27.62;17.90;;;;;;;-1.95;61.37;93734.62;1725920;81;21198;-57
2021/01/27 04:11:18;;;;;;;27.42;17.80;;;;;;;-1.99;61.32;93733.88;1723068;81;21175;-57
2021/01/27 04:13:46;;;;;;;26.50;16.57;;;;;;;-2.09;61.43;93730.08;1751796;80;21252;-59
2021/01/27 04:16:14;;;;;;;31.10;17.80;;;;;;;-2.11;61.56;93731.02;1749388;80;22109;-58
2021/01/27 04:18:43;;;;;;;24.87;16.32;;;;;;;-2.09;61.58;93727.38;1757481;80;21142;-58
2021/01/27 04:21:12;;;;;;;19.85;14.95;;;;;;;-2.03;61.73;93725.02;1768117;80;21460;-59
2021/01/27 04:23:41;;;;;;;20.90;15.23;;;;;;;-1.97;61.54;93733.65;1766623;80;21548;-58
2021/01/27 04:26:09;;;;;;;22.40;14.58;;;;;;;-1.95;61.61;93736.72;1724652;81;21174;-58
2021/01/27 04:28:38;;;;;;;21.90;13.85;;;;;;;-1.94;61.53;93731.52;1748052;80;21231;-57
2021/01/27 04:31:06;;;;;;;23.70;17.30;;;;;;;-1.97;61.46;93732.30;1767447;80;21282;-58
2021/01/27 04:33:35;;;;;;;31.87;21.93;;;;;;;-2.02;61.35;93731.38;1748293;81;21154;-56
2021/01/27 04:36:06;;;;;;;29.60;20.65;;;;;;;-2.06;61.65;93724.46;1746766;80;21097;-57
2021/01/27 04:38:34;;;;;;;22.48;16.32;;;;;;;-2.07;61.85;93727.75;1750435;80;21047;-58
2021/01/27 04:41:03;;;;;;;20.45;15.05;;;;;;;-1.99;61.94;93726.55;1725272;81;22075;-57
2021/01/27 04:43:39;;;;;;;36.10;23.42;;;;;;;-1.90;62.04;93718.81;1735367;82;21228;-58
2021/01/27 04:46:26;;;;;;;58.35;37.50;;;;;;;-1.76;61.77;93722.19;1723249;82;21119;-58
2021/01/27 04:49:16;;;;;;;55.55;34.03;;;;;;;-1.73;61.78;93726.03;1721952;81;21197;-58
2021/01/27 04:52:08;;;;;;;50.45;31.55;;;;;;;-1.68;61.81;93708.09;1722176;81;21171;-57
2021/01/27 04:55:28;;;;;;;67.90;40.70;;;;;;;-1.71;61.91;93716.38;1724462;81;21208;-58
2021/01/27 04:58:07;;;;;;;75.55;41.68;;;;;;;-1.56;61.66;93711.65;1710439;81;21083;-58
2021/01/27 05:01:10;;;;;;;74.07;35.60;;;;;;;-1.48;61.36;93713.90;1764509;79;21198;-58
2021/01/27 05:03:59;;;;;;;98.40;52.48;;;;;;;-1.42;61.22;93706.94;1762509;80;21069;-57
2021/01/27 05:06:31;;;;;;;75.10;42.25;;;;;;;-1.46;61.13;93706.77;1750489;80;21161;-58
2021/01/27 05:09:31;;;;;;;46.95;29.45;;;;;;;-1.53;61.47;93718.38;1757361;80;21156;-58
2021/01/27 05:12:02;;;;;;;40.70;23.95;;;;;;;-1.53;61.58;93720.31;1729975;80;21186;-58
2021/01/27 05:14:30;;;;;;;33.05;20.43;;;;;;;-1.49;61.40;93717.77;1747590;80;21237;-59
2021/01/27 05:17:01;;;;;;;33.90;20.82;;;;;;;-1.51;61.44;93716.64;1753234;80;21631;-58
2021/01/27 05:19:29;;;;;;;32.55;21.05;;;;;;;-1.49;61.57;93715.06;1726932;80;21549;-58
2021/01/27 05:21:58;;;;;;;34.08;20.70;;;;;;;-1.40;61.47;93718.09;1755752;80;21205;-59
2021/01/27 05:24:26;;;;;;;44.15;24.32;;;;;;;-1.36;61.35;93716.13;1734879;81;21128;-58
2021/01/27 05:26:57;;;;;;;68.47;38.30;;;;;;;-1.29;61.33;93716.67;1720540;81;21079;-57
2021/01/27 05:30:03;;;;;;;55.30;31.48;;;;;;;-1.22;61.29;93715.25;1727690;81;21089;-57
2021/01/27 05:32:55;;;;;;;78.78;39.45;;;;;;;-1.16;61.27;93703.64;1719657;82;21119;-58
2021/01/27 05:35:36;;;;;;;79.37;42.83;;;;;;;-1.21;61.31;93692.50;1721113;81;21265;-58
2021/01/27 05:38:31;;;;;;;84.65;40.92;;;;;;;-1.28;61.50;93696.62;1714310;81;21301;-58
2021/01/27 05:41:08;;;;;;;97.85;47.67;;;;;;;-1.32;61.68;93708.77;1719909;81;21096;-58
2021/01/27 05:43:36;;;;;;;86.65;46.95;;;;;;;-1.33;61.74;93710.54;1732242;82;21196;-59
2021/01/27 05:46:21;;;;;;;91.50;47.62;;;;;;;-1.30;61.82;93704.34;1726936;81;21166;-59
2021/01/27 05:48:50;;;;;;;98.42;52.48;;;;;;;-1.26;61.70;93705.86;1753836;80;21227;-59
2021/01/27 05:51:37;;;;;;;106.75;59.58;;;;;;;-1.18;61.51;93705.22;1751133;80;21254;-58
2021/01/27 05:54:23;;;;;;;71.15;39.53;;;;;;;-1.09;61.35;93712.27;1759998;79;21643;-59
2021/01/27 05:56:54;;;;;;;52.93;30.77;;;;;;;-1.02;61.10;93712.19;1720298;81;21171;-59
2021/01/27 05:59:25;;;;;;;61.42;31.75;;;;;;;-1.02;60.99;93717.59;1718467;81;21211;-59
2021/01/27 06:02:02;;;;;;;51.00;31.10;;;;;;;-0.92;60.82;93720.79;1720967;82;22122;-59
2021/01/27 06:04:31;;;;;;;52.43;31.65;;;;;;;-0.88;60.78;93718.25;1731999;82;21217;-59
2021/01/27 06:07:06;;;;;;;51.33;30.97;;;;;;;-0.89;60.61;93726.16;1747529;80;21265;-59
2021/01/27 06:09:49;;;;;;;46.08;28.07;;;;;;;-0.87;60.65;93725.75;1766866;80;21223;-60
2021/01/27 06:12:25;;;;;;;37.80;22.58;;;;;;;-0.88;60.86;93730.96;1754559;80;21648;-60
2021/01/27 06:15:13;;;;;;;32.80;19.98;;;;;;;-0.92;60.78;93722.13;1761669;80;21547;-59
2021/01/27 06:17:47;;;;;;;27.82;18.60;;;;;;;-0.89;60.72;93722.69;1752112;80;21139;-59
2021/01/27 06:20:31;;;;;;;42.88;27.15;;;;;;;-0.78;60.67;93722.02;1751844;80;21166;-59
2021/01/27 06:23:28;;;;;;;37.80;24.95;;;;;;;-0.65;60.58;93718.97;1749963;80;21069;-59
2021/01/27 06:26:34;;;;;;;55.70;30.85;;;;;;;-0.62;60.28;93715.50;1757306;80;21158;-59
2021/01/27 06:29:17;;;;;;;136.77;64.03;;;;;;;-0.67;60.36;93711.86;1754894;80;22206;-60
2021/01/27 06:32:19;;;;;;;137.43;61.88;;;;;;;-0.67;60.54;93711.86;1756185;80;21127;-60
2021/01/27 06:35:03;;;;;;;93.80;47.78;;;;;;;-0.67;60.67;93713.99;1704682;83;21349;-59
2021/01/27 06:37:52;;;;;;;100.60;49.53;;;;;;;-0.67;60.92;93716.69;1749660;80;21083;-59
2021/01/27 06:40:29;;;;;;;88.45;43.70;;;;;;;-0.64;60.84;93720.50;1759672;80;21059;-60
2021/01/27 06:43:42;;;;;;;101.35;58.33;;;;;;;-0.59;60.66;93727.59;1757781;80;21443;-59
2021/01/27 06:47:06;;;;;;;107.90;61.02;;;;;;;-0.47;60.73;93722.25;1756488;80;21234;-60
2021/01/27 06:50:00;;;;;;;129.32;69.32;;;;;;;-0.50;61.04;93729.81;1759472;80;21429;-59
2021/01/27 06:52:51;;;;;;;178.72;78.45;;;;;;;-0.53;61.24;93726.00;1761821;80;21572;-60
2021/01/27 06:55:50;;;;;;;159.63;76.10;;;;;;;-0.45;61.20;93725.34;1706935;82;21126;-61
2021/01/27 06:58:41;;;;;;;118.13;64.20;;;;;;;-0.40;61.28;93728.35;1753316;80;21356;-62
2021/01/27 07:01:40;;;;;;;129.53;65.42;;;;;;;-0.34;61.35;93724.62;1740087;80;21284;-60
2021/01/27 07:04:44;;;;;;;162.57;86.53;;;;;;;-0.22;60.81;93724.87;1757849;78;21178;-59
2021/01/27 07:07:28;;;;;;;152.68;83.65;;;;;;;-0.10;60.65;93722.22;1751707;80;21155;-61
2021/01/27 07:10:41;;;;;;;90.57;50.03;;;;;;;0.05;60.48;93721.06;1760348;79;21697;-61
2021/01/27 07:13:38;;;;;;;151.75;76.82;;;;;;;0.14;59.75;93713.81;1762092;80;21223;-59
2021/01/27 07:16:13;;;;;;;131.47;71.33;;;;;;;0.22;59.55;93708.50;1748591;80;21217;-60
2021/01/27 07:19:05;;;;;;;127.75;70.60;;;;;;;0.26;59.73;93709.97;1729859;80;21100;-59
2021/01/27 07:22:02;;;;;;;145.90;79.27;;;;;;;0.22;59.54;93710.61;1656665;83;21562;-61
2021/01/27 07:25:07;;;;;;;81.50;49.30;;;;;;;0.26;59.42;93705.91;1743202;80;21208;-62
2021/01/27 07:27:56;;;;;;;74.25;43.60;;;;;;;0.17;59.16;93710.28;1747696;80;23473;-60
2021/01/27 07:30:35;;;;;;;76.33;43.55;;;;;;;0.12;59.08;93714.23;1749086;80;21099;-60
2021/01/27 07:33:17;;;;;;;79.10;50.83;;;;;;;0.19;58.78;93715.48;1872402;74;28356;-61
2021/01/27 07:36:18;;;;;;;97.22;57.58;;;;;;;0.23;58.48;93712.73;1846510;76;21534;-60
2021/01/27 07:38:47;;;;;;;80.97;46.85;;;;;;;0.14;59.08;93721.92;1833992;76;21331;-60
2021/01/27 07:41:20;;;;;;;136.12;79.32;;;;;;;0.11;59.44;93715.41;1861705;76;21160;-59
2021/01/27 07:44:01;;;;;;;79.07;45.20;;;;;;;0.22;59.29;93716.02;1872851;76;20926;-60
2021/01/27 07:46:36;;;;;;;100.50;54.95;;;;;;;0.24;58.90;93725.84;1831453;77;21156;-61
2021/01/27 07:49:05;;;;;;;88.78;51.55;;;;;;;0.25;59.05;93713.09;1854052;76;21135;-60
2021/01/27 07:51:45;;;;;;;111.83;63.87;;;;;;;0.36;59.18;93723.95;1775295;80;21364;-58
2021/01/27 07:54:24;;;;;;;79.92;45.58;;;;;;;0.36;59.33;93732.05;1772335;80;21147;-64
2021/01/27 07:57:18;;;;;;;74.15;44.13;;;;;;;0.35;59.05;93725.12;1771215;80;21167;-60
2021/01/27 07:59:55;;;;;;;100.60;51.13;;;;;;;0.29;59.27;93726.75;1830152;77;21639;-61
2021/01/27 08:02:26;;;;;;;87.22;49.38;;;;;;;0.16;59.46;93728.47;1820559;77;21135;-60
2021/01/27 08:05:06;;;;;;;83.65;47.70;;;;;;;0.09;59.56;93727.78;1807628;76;21378;-60
2021/01/27 08:07:42;;;;;;;74.62;41.65;;;;;;;0.07;59.79;93736.28;1841234;76;21145;-60
2021/01/27 08:10:31;;;;;;;90.50;47.95;;;;;;;0.15;60.04;93732.91;1835898;76;21140;-60
2021/01/27 08:13:06;;;;;;;70.83;39.40;;;;;;;0.16;60.07;93729.81;1858622;76;21490;-61
2021/01/27 08:15:44;;;;;;;57.25;34.03;;;;;;;0.23;60.29;93724.30;1803812;79;21614;-61
2021/01/27 08:18:15;;;;;;;50.65;27.70;;;;;;;0.27;60.18;93735.86;1797999;78;21191;-63
2021/01/27 08:20:45;;;;;;;40.90;25.20;;;;;;;0.35;60.23;93727.83;1773448;81;21223;-63
2021/01/27 08:23:25;;;;;;;39.63;22.30;;;;;;;0.41;60.04;93728.14;1793347;80;21602;-61
2021/01/27 08:26:07;;;;;;;30.77;21.52;;;;;;;0.48;59.95;93723.41;1793835;79;21166;-63
2021/01/27 08:28:43;;;;;;;44.08;26.90;;;;;;;0.54;60.17;93724.47;1793274;80;21157;-63
2021/01/27 08:31:18;;;;;;;42.17;26.75;;;;;;;0.65;60.21;93723.73;1791515;79;21521;-60
2021/01/27 08:33:53;;;;;;;33.35;20.65;;;;;;;0.76;59.94;93717.56;1783095;80;21095;-62
2021/01/27 08:36:35;;;;;;;27.32;18.25;;;;;;;0.89;59.27;93726.64;1823475;78;21056;-62
2021/01/27 08:39:12;;;;;;;25.02;17.37;;;;;;;0.94;59.07;93728.87;1746195;80;21159;-60
2021/01/27 08:42:21;;;;;;;21.90;15.55;;;;;;;0.93;58.58;93730.66;1756988;80;21091;-60
2021/01/27 08:44:55;;;;;;;26.05;17.62;;;;;;;0.90;58.34;93732.23;1761267;80;23555;-61
2021/01/27 08:47:37;;;;;;;20.27;14.45;;;;;;;0.81;58.49;93732.58;1773315;80;21190;-62
2021/01/27 08:50:12;;;;;;;21.40;16.05;;;;;;;0.78;58.35;93742.27;1767852;80;21187;-60
2021/01/27 08:52:41;;;;;;;24.10;16.35;;;;;;;0.75;58.24;93740.39;1763388;80;21601;-60
2021/01/27 08:55:37;;;;;;;20.35;14.07;;;;;;;0.71;58.71;93741.03;1791911;78;21122;-58
2021/01/27 08:58:26;;;;;;;19.30;14.45;;;;;;;0.69;58.54;93752.08;1779270;80;21202;-63
2021/01/27 09:01:11;;;;;;;26.60;23.83;;;;;;;0.66;58.75;93752.33;1769205;80;21167;-60
2021/01/27 09:03:51;;;;;;;17.45;12.98;;;;;;;0.61;58.99;93750.05;1774974;80;21147;-60
2021/01/27 09:06:41;;;;;;;19.65;14.58;;;;;;;0.68;58.71;93749.97;1793124;80;21047;-58
2021/01/27 09:09:18;;;;;;;20.23;14.20;;;;;;;0.72;58.50;93743.91;1772232;79;21197;-59
2021/01/27 09:11:46;;;;;;;19.92;13.93;;;;;;;0.76;58.67;93746.58;1769170;80;22715;-62
2021/01/27 09:14:15;;;;;;;18.80;13.78;;;;;;;0.85;58.67;93746.23;1775105;80;21134;-64
2021/01/27 09:16:44;;;;;;;16.42;11.83;;;;;;;0.99;58.27;93741.19;1774881;79;21111;-60
2021/01/27 09:19:21;;;;;;;24.32;15.80;;;;;;;1.08;58.28;93746.27;1791886;80;21174;-59
2021/01/27 09:22:08;;;;;;;14.60;11.18;;;;;;;1.14;57.72;93741.90;1768482;80;21195;-60
2021/01/27 09:24:45;;;;;;;15.98;11.73;;;;;;;1.13;57.29;93726.83;1783902;80;21436;-59
2021/01/27 09:27:30;;;;;;;15.70;13.58;;;;;;;1.11;57.42;93735.95;1801923;78;21174;-59
2021/01/27 09:30:09;;;;;;;19.00;13.32;;;;;;;1.20;57.29;93738.14;1766325;80;21124;-60
2021/01/27 09:32:39;;;;;;;20.55;12.65;;;;;;;1.37;56.86;93732.44;1792570;78;21056;-59
2021/01/27 09:35:22;;;;;;;15.83;11.33;;;;;;;1.54;56.56;93738.72;1790575;80;21138;-61
2021/01/27 09:37:59;;;;;;;19.35;12.58;;;;;;;1.59;55.87;93728.17;1774054;79;21151;-60
2021/01/27 09:40:42;;;;;;;13.75;10.20;;;;;;;1.63;55.77;93717.25;1808198;79;21500;-60
2021/01/27 09:43:13;;;;;;;15.75;11.60;;;;;;;1.71;55.07;93712.63;1771670;80;21626;-61
2021/01/27 09:45:46;;;;;;;22.82;15.53;;;;;;;1.71;54.37;93704.50;1771436;80;21100;-59
2021/01/27 09:48:16;;;;;;;14.87;10.93;;;;;;;1.72;54.63;93697.90;1789954;80;21134;-62
2021/01/27 09:50:59;;;;;;;18.30;11.55;;;;;;;1.85;53.87;93690.69;1779135;79;22082;-63
2021/01/27 09:53:30;;;;;;;15.75;11.68;;;;;;;1.85;53.57;93686.04;1790656;79;21639;-59
2021/01/27 09:55:58;;;;;;;13.00;10.38;;;;;;;1.88;53.11;93685.78;1783636;79;21104;-61
2021/01/27 09:58:27;;;;;;;16.80;10.75;;;;;;;1.84;52.71;93680.44;1771490;80;21098;-62
2021/01/27 10:01:05;;;;;;;11.90;9.85;;;;;;;1.83;52.80;93668.08;1785842;79;21376;-61
2021/01/27 10:03:46;;;;;;;14.58;12.73;;;;;;;1.95;52.33;93662.61;1797304;77;21137;-61
2021/01/27 10:06:51;;;;;;;14.20;9.65;;;;;;;1.99;52.40;93661.33;1803049;78;21208;-57
2021/01/27 10:09:29;;;;;;;17.52;12.53;;;;;;;2.04;52.00;93664.92;1786067;78;22239;-59
2021/01/27 10:12:04;;;;;;;43.17;25.37;;;;;;;2.13;52.67;93654.26;1769279;79;21482;-60
2021/01/27 10:14:36;;;;;;;21.07;13.55;;;;;;;2.19;51.66;93644.46;1774602;80;21185;-61
2021/01/27 10:17:08;;;;;;;21.35;11.73;;;;;;;2.32;51.23;93641.24;1798022;77;22284;-61
2021/01/27 10:19:44;;;;;;;;;;;;;;;2.46;50.54;93645.59;1782848;80;21210;-62
2021/01/27 10:22:15;;;;;;;10.82;8.55;;;;;;;2.49;49.91;93640.70;1781420;79;20215;-61
2021/01/27 10:24:53;;;;;;;16.73;10.53;;;;;;;2.43;49.55;93642.36;1782114;80;21624;-59
2021/01/27 10:27:41;;;;;;;18.20;11.90;;;;;;;2.43;49.00;93643.72;1796135;78;21145;-59
2021/01/27 10:30:22;;;;;;;16.25;9.98;;;;;;;2.39;48.88;93645.17;1774019;80;21222;-60
2021/01/27 10:32:51;;;;;;;16.52;9.30;;;;;;;2.38;49.31;93632.02;1780941;79;21136;-59
2021/01/27 10:35:31;;;;;;;29.85;10.95;;;;;;;2.43;48.83;93628.80;1780731;79;21504;-59
2021/01/27 10:38:12;;;;;;;17.57;9.30;;;;;;;2.38;49.10;93626.02;1786478;79;21068;-59
2021/01/27 10:41:13;;;;;;;13.93;9.35;;;;;;;2.39;49.17;93616.69;1780362;79;21148;-59
2021/01/27 10:43:41;;;;;;;24.40;17.02;;;;;;;2.46;48.85;93618.45;1760118;80;21200;-58
2021/01/27 10:46:23;;;;;;;13.53;9.50;;;;;;;2.50;48.60;93624.58;1779317;79;21056;-59
2021/01/27 15:29:25;;;;;;;156.52;118.55;;;;;;;-0.23;54.60;93584.80;1814739;77;26422;-53
2021/01/27 15:31:53;;;;;;;30.57;15.85;;;;;;;-0.23;54.73;93573.39;1772225;79;21182;-51
2021/01/27 15:34:22;;;;;;;47.10;29.42;;;;;;;-0.18;54.47;93566.77;1764161;79;21370;-53
2021/01/27 15:36:53;;;;;;;51.10;33.25;;;;;;;-0.16;54.79;93567.90;1766261;79;21155;-57
2021/01/27 15:39:22;;;;;;;28.50;18.67;;;;;;;-0.11;54.98;93565.30;1770585;79;21128;-53
2021/01/27 15:41:51;;;;;;;31.07;15.68;;;;;;;-0.05;54.93;93565.79;1765988;80;21151;-56
2021/01/27 15:44:20;;;;;;;87.97;23.30;;;;;;;-0.03;54.77;93565.39;1762090;80;21715;-55
2021/01/27 15:46:49;;;;;;;73.17;26.93;;;;;;;-0.04;55.09;93567.92;1764329;79;21375;-56
2021/01/27 15:49:18;;;;;;;46.98;27.50;;;;;;;-0.02;55.58;93570.38;1781590;79;21452;-54
2021/01/27 15:51:47;;;;;;;73.70;42.55;;;;;;;0.03;55.56;93567.23;1782633;79;21116;-55
2021/01/27 15:54:16;;;;;;;60.00;35.00;;;;;;;0.01;55.40;93570.94;1757019;80;21116;-54
2021/01/27 15:56:46;;;;;;;67.30;45.30;;;;;;;0.07;55.23;93571.99;1772971;79;21051;-54
2021/01/27 15:59:15;;;;;;;59.88;38.02;;;;;;;0.16;55.03;93570.30;1759512;80;22039;-53
2021/01/27 16:01:46;;;;;;;78.45;48.95;;;;;;;0.26;54.91;93573.41;1699029;83;21115;-54
2021/01/27 16:04:18;;;;;;;78.15;54.38;;;;;;;0.34;54.83;93575.42;1755591;80;21261;-56
2021/01/27 16:06:46;;;;;;;79.32;59.98;;;;;;;0.39;54.91;93573.63;1764126;80;21223;-56
2021/01/27 16:09:15;;;;;;;121.70;76.80;;;;;;;0.45;55.05;93572.72;1681247;83;21178;-56
2021/01/27 16:11:44;;;;;;;105.15;65.62;;;;;;;0.48;55.28;93585.44;1755393;80;22247;-57
2021/01/27 16:14:13;;;;;;;104.00;48.65;;;;;;;0.47;55.17;93573.09;1767049;80;21143;-56
2021/01/27 16:16:43;;;;;;;96.05;50.00;;;;;;;0.45;55.09;93571.97;1792553;79;21133;-57
2021/01/27 16:19:12;;;;;;;61.42;38.30;;;;;;;0.45;55.26;93571.97;1726328;82;21164;-53
2021/01/27 16:21:41;;;;;;;75.15;42.15;;;;;;;0.54;55.39;93581.08;1790259;79;21165;-53
2021/01/27 16:24:09;;;;;;;44.95;24.63;;;;;;;0.62;55.44;93579.77;1731264;82;21209;-52
2021/01/27 16:26:39;;;;;;;62.80;29.98;;;;;;;0.68;55.60;93583.56;1762022;80;21084;-52
2021/01/27 16:29:07;;;;;;;127.62;66.80;;;;;;;0.63;55.78;93580.55;1720173;81;21187;-53
2021/01/27 16:31:36;;;;;;;107.25;59.42;;;;;;;0.56;55.93;93567.91;1720488;82;21076;-56
2021/01/27 16:34:05;;;;;;;69.65;41.85;;;;;;;0.61;55.95;93572.83;1717098;82;21171;-52
2021/01/27 16:36:36;;;;;;;75.00;43.58;;;;;;;0.68;56.13;93573.30;1720498;81;21390;-53
2021/01/27 16:39:05;;;;;;;68.40;37.13;;;;;;;0.70;55.95;93573.08;1742336;82;21930;-54
2021/01/27 16:41:35;;;;;;;109.95;59.55;;;;;;;0.71;56.27;93567.84;1723662;82;21158;-53
2021/01/27 16:44:04;;;;;;;143.90;81.28;;;;;;;0.68;56.28;93563.84;1728305;81;21607;-53
2021/01/27 16:46:35;;;;;;;155.45;82.80;;;;;;;0.64;56.16;93563.92;1731168;82;21206;-51
2021/01/27 16:49:03;;;;;;;144.90;85.87;;;;;;;0.67;56.14;93556.33;1683511;84;22087;-52
2021/01/27 16:51:34;;;;;;;113.37;67.03;;;;;;;0.65;55.95;93568.73;1708009;82;21235;-52